sensor_id;sensor_type;location;lat;lon;timestamp;P1;durP1;ratioP1;P2;durP2;ratioP2
80111;SDS011;69421;51.062;3.728;2023-05-27T00:01:58;13.63;;;3.28;;
80111;SDS011;69421;51.062;3.728;2023-05-27T00:04:24;8.85;;;2.97;;
80111;SDS011;69421;51.062;3.728;2023-05-27T00:06:50;12.27;;;2.90;;
80111;SDS011;69421;51.062;3.728;2023-05-27T00:09:15;10.85;;;3.15;;
80111;SDS011;69421;51.062;3.728;2023-05-27T00:11:41;11.45;;;2.95;;
80111;SDS011;69421;51.062;3.728;2023-05-27T00:14:07;9.10;;;3.60;;
80111;SDS011;69421;51.062;3.728;2023-05-27T00:16:32;12.90;;;3.55;;
80111;SDS011;69421;51.062;3.728;2023-05-27T00:19:00;13.82;;;3.22;;
80111;SDS011;69421;51.062;3.728;2023-05-27T00:21:26;11.00;;;3.05;;
80111;SDS011;69421;51.062;3.728;2023-05-27T00:23:52;11.07;;;2.83;;
80111;SDS011;69421;51.062;3.728;2023-05-27T00:26:18;14.15;;;2.97;;
80111;SDS011;69421;51.062;3.728;2023-05-27T00:28:44;12.40;;;4.30;;
80111;SDS011;69421;51.062;3.728;2023-05-27T00:31:09;17.80;;;3.53;;
80111;SDS011;69421;51.062;3.728;2023-05-27T00:33:35;11.57;;;3.42;;
80111;SDS011;69421;51.062;3.728;2023-05-27T00:36:00;14.25;;;3.60;;
80111;SDS011;69421;51.062;3.728;2023-05-27T00:38:26;11.27;;;2.88;;
80111;SDS011;69421;51.062;3.728;2023-05-27T00:40:52;10.75;;;3.08;;
80111;SDS011;69421;51.062;3.728;2023-05-27T00:43:18;10.30;;;3.47;;
80111;SDS011;69421;51.062;3.728;2023-05-27T00:45:44;15.55;;;3.92;;
80111;SDS011;69421;51.062;3.728;2023-05-27T00:48:09;14.13;;;4.45;;
80111;SDS011;69421;51.062;3.728;2023-05-27T00:50:35;13.63;;;4.18;;
80111;SDS011;69421;51.062;3.728;2023-05-27T00:53:01;9.98;;;3.00;;
80111;SDS011;69421;51.062;3.728;2023-05-27T00:55:27;14.68;;;4.25;;
80111;SDS011;69421;51.062;3.728;2023-05-27T00:57:53;10.95;;;4.60;;
80111;SDS011;69421;51.062;3.728;2023-05-27T01:00:20;12.27;;;3.22;;
80111;SDS011;69421;51.062;3.728;2023-05-27T01:02:46;15.88;;;4.45;;
80111;SDS011;69421;51.062;3.728;2023-05-27T01:05:12;7.90;;;3.47;;
80111;SDS011;69421;51.062;3.728;2023-05-27T01:12:49;13.07;;;4.15;;
80111;SDS011;69421;51.062;3.728;2023-05-27T01:15:20;15.40;;;4.05;;
80111;SDS011;69421;51.062;3.728;2023-05-27T01:17:47;12.85;;;3.58;;
80111;SDS011;69421;51.062;3.728;2023-05-27T01:20:13;11.65;;;3.17;;
80111;SDS011;69421;51.062;3.728;2023-05-27T01:22:40;13.85;;;3.97;;
80111;SDS011;69421;51.062;3.728;2023-05-27T01:25:10;11.57;;;4.00;;
80111;SDS011;69421;51.062;3.728;2023-05-27T01:27:36;10.88;;;3.40;;
80111;SDS011;69421;51.062;3.728;2023-05-27T01:32:33;10.45;;;3.83;;
80111;SDS011;69421;51.062;3.728;2023-05-27T01:37:40;11.52;;;4.70;;
80111;SDS011;69421;51.062;3.728;2023-05-27T01:40:07;14.13;;;3.83;;
80111;SDS011;69421;51.062;3.728;2023-05-27T01:42:37;13.52;;;3.78;;
80111;SDS011;69421;51.062;3.728;2023-05-27T01:45:04;15.07;;;4.00;;
80111;SDS011;69421;51.062;3.728;2023-05-27T01:47:31;12.43;;;4.00;;
80111;SDS011;69421;51.062;3.728;2023-05-27T01:49:57;9.02;;;3.97;;
80111;SDS011;69421;51.062;3.728;2023-05-27T01:52:23;11.27;;;4.10;;
80111;SDS011;69421;51.062;3.728;2023-05-27T01:54:48;12.32;;;3.50;;
80111;SDS011;69421;51.062;3.728;2023-05-27T01:57:14;14.55;;;4.20;;
80111;SDS011;69421;51.062;3.728;2023-05-27T01:59:40;11.23;;;4.03;;
80111;SDS011;69421;51.062;3.728;2023-05-27T02:02:05;13.45;;;3.65;;
80111;SDS011;69421;51.062;3.728;2023-05-27T02:04:31;12.50;;;3.50;;
80111;SDS011;69421;51.062;3.728;2023-05-27T02:06:57;7.22;;;3.72;;
80111;SDS011;69421;51.062;3.728;2023-05-27T02:09:22;7.30;;;3.53;;
80111;SDS011;69421;51.062;3.728;2023-05-27T02:11:48;11.20;;;3.65;;
80111;SDS011;69421;51.062;3.728;2023-05-27T02:14:14;10.73;;;3.83;;
80111;SDS011;69421;51.062;3.728;2023-05-27T02:16:39;12.10;;;3.33;;
80111;SDS011;69421;51.062;3.728;2023-05-27T02:19:05;11.40;;;3.35;;
80111;SDS011;69421;51.062;3.728;2023-05-27T02:21:31;11.98;;;4.40;;
80111;SDS011;69421;51.062;3.728;2023-05-27T02:23:57;12.85;;;3.63;;
80111;SDS011;69421;51.062;3.728;2023-05-27T02:26:23;11.23;;;4.15;;
80111;SDS011;69421;51.062;3.728;2023-05-27T02:28:49;15.43;;;4.38;;
80111;SDS011;69421;51.062;3.728;2023-05-27T02:31:15;12.23;;;4.15;;
80111;SDS011;69421;51.062;3.728;2023-05-27T02:33:40;11.93;;;3.90;;
80111;SDS011;69421;51.062;3.728;2023-05-27T02:36:06;12.15;;;4.03;;
80111;SDS011;69421;51.062;3.728;2023-05-27T02:38:32;10.75;;;4.72;;
80111;SDS011;69421;51.062;3.728;2023-05-27T02:40:58;14.77;;;3.60;;
80111;SDS011;69421;51.062;3.728;2023-05-27T02:43:23;10.93;;;3.90;;
80111;SDS011;69421;51.062;3.728;2023-05-27T02:45:49;14.00;;;4.43;;
80111;SDS011;69421;51.062;3.728;2023-05-27T02:48:14;11.02;;;4.05;;
80111;SDS011;69421;51.062;3.728;2023-05-27T02:50:40;10.55;;;3.95;;
80111;SDS011;69421;51.062;3.728;2023-05-27T02:53:06;11.30;;;3.65;;
80111;SDS011;69421;51.062;3.728;2023-05-27T02:55:31;14.63;;;3.45;;
80111;SDS011;69421;51.062;3.728;2023-05-27T02:57:57;10.82;;;4.70;;
80111;SDS011;69421;51.062;3.728;2023-05-27T03:00:22;15.63;;;4.13;;
80111;SDS011;69421;51.062;3.728;2023-05-27T03:02:49;14.77;;;4.35;;
80111;SDS011;69421;51.062;3.728;2023-05-27T03:05:14;16.10;;;5.03;;
80111;SDS011;69421;51.062;3.728;2023-05-27T03:07:40;12.40;;;4.03;;
80111;SDS011;69421;51.062;3.728;2023-05-27T03:10:06;15.65;;;4.05;;
80111;SDS011;69421;51.062;3.728;2023-05-27T03:12:33;13.75;;;4.50;;
80111;SDS011;69421;51.062;3.728;2023-05-27T03:14:59;14.35;;;4.03;;
80111;SDS011;69421;51.062;3.728;2023-05-27T03:17:24;10.88;;;3.33;;
80111;SDS011;69421;51.062;3.728;2023-05-27T03:19:50;10.40;;;3.67;;
80111;SDS011;69421;51.062;3.728;2023-05-27T03:22:16;12.48;;;4.75;;
80111;SDS011;69421;51.062;3.728;2023-05-27T03:24:42;13.23;;;4.63;;
80111;SDS011;69421;51.062;3.728;2023-05-27T03:27:07;10.63;;;3.63;;
80111;SDS011;69421;51.062;3.728;2023-05-27T03:29:33;10.75;;;3.47;;
80111;SDS011;69421;51.062;3.728;2023-05-27T03:31:59;12.20;;;3.38;;
80111;SDS011;69421;51.062;3.728;2023-05-27T03:34:24;7.47;;;4.20;;
80111;SDS011;69421;51.062;3.728;2023-05-27T03:36:50;13.60;;;3.72;;
80111;SDS011;69421;51.062;3.728;2023-05-27T03:39:16;16.25;;;4.00;;
80111;SDS011;69421;51.062;3.728;2023-05-27T03:41:44;15.35;;;4.32;;
80111;SDS011;69421;51.062;3.728;2023-05-27T03:44:10;9.30;;;4.60;;
80111;SDS011;69421;51.062;3.728;2023-05-27T03:46:36;12.63;;;4.05;;
80111;SDS011;69421;51.062;3.728;2023-05-27T03:49:01;15.90;;;5.18;;
80111;SDS011;69421;51.062;3.728;2023-05-27T03:51:27;14.00;;;5.10;;
80111;SDS011;69421;51.062;3.728;2023-05-27T03:53:53;12.52;;;4.28;;
80111;SDS011;69421;51.062;3.728;2023-05-27T03:56:19;10.65;;;3.47;;
80111;SDS011;69421;51.062;3.728;2023-05-27T03:58:45;12.85;;;3.40;;
80111;SDS011;69421;51.062;3.728;2023-05-27T04:01:10;14.98;;;4.28;;
80111;SDS011;69421;51.062;3.728;2023-05-27T04:03:36;18.75;;;4.78;;
80111;SDS011;69421;51.062;3.728;2023-05-27T04:06:04;10.57;;;3.20;;
80111;SDS011;69421;51.062;3.728;2023-05-27T04:08:30;9.05;;;3.70;;
80111;SDS011;69421;51.062;3.728;2023-05-27T04:10:56;9.43;;;3.38;;
80111;SDS011;69421;51.062;3.728;2023-05-27T04:13:22;14.93;;;4.35;;
80111;SDS011;69421;51.062;3.728;2023-05-27T04:15:48;10.30;;;3.50;;
80111;SDS011;69421;51.062;3.728;2023-05-27T04:18:14;11.25;;;4.03;;
80111;SDS011;69421;51.062;3.728;2023-05-27T04:20:40;12.10;;;3.38;;
80111;SDS011;69421;51.062;3.728;2023-05-27T04:25:35;13.48;;;3.78;;
80111;SDS011;69421;51.062;3.728;2023-05-27T04:28:01;10.27;;;4.10;;
80111;SDS011;69421;51.062;3.728;2023-05-27T04:30:30;9.55;;;3.10;;
80111;SDS011;69421;51.062;3.728;2023-05-27T04:32:59;11.95;;;3.45;;
80111;SDS011;69421;51.062;3.728;2023-05-27T04:35:25;11.98;;;4.25;;
80111;SDS011;69421;51.062;3.728;2023-05-27T04:37:51;14.80;;;4.13;;
80111;SDS011;69421;51.062;3.728;2023-05-27T04:40:17;13.15;;;4.13;;
80111;SDS011;69421;51.062;3.728;2023-05-27T04:42:43;10.63;;;3.80;;
80111;SDS011;69421;51.062;3.728;2023-05-27T04:45:09;11.07;;;3.75;;
80111;SDS011;69421;51.062;3.728;2023-05-27T04:50:03;11.70;;;3.87;;
80111;SDS011;69421;51.062;3.728;2023-05-27T04:52:30;8.23;;;3.00;;
80111;SDS011;69421;51.062;3.728;2023-05-27T04:55:05;13.65;;;4.82;;
80111;SDS011;69421;51.062;3.728;2023-05-27T04:57:31;12.50;;;4.22;;
80111;SDS011;69421;51.062;3.728;2023-05-27T04:59:58;8.23;;;3.50;;
80111;SDS011;69421;51.062;3.728;2023-05-27T05:02:43;13.13;;;3.97;;
80111;SDS011;69421;51.062;3.728;2023-05-27T05:05:11;15.48;;;4.57;;
80111;SDS011;69421;51.062;3.728;2023-05-27T05:07:37;16.48;;;4.28;;
80111;SDS011;69421;51.062;3.728;2023-05-27T05:10:05;13.40;;;3.83;;
80111;SDS011;69421;51.062;3.728;2023-05-27T05:12:32;11.77;;;4.72;;
80111;SDS011;69421;51.062;3.728;2023-05-27T05:14:58;7.80;;;4.20;;
80111;SDS011;69421;51.062;3.728;2023-05-27T05:17:24;9.32;;;3.75;;
80111;SDS011;69421;51.062;3.728;2023-05-27T05:19:51;11.88;;;3.22;;
80111;SDS011;69421;51.062;3.728;2023-05-27T05:22:17;9.80;;;3.60;;
80111;SDS011;69421;51.062;3.728;2023-05-27T05:24:48;13.65;;;4.00;;
80111;SDS011;69421;51.062;3.728;2023-05-27T05:27:15;9.65;;;4.05;;
80111;SDS011;69421;51.062;3.728;2023-05-27T05:29:40;8.30;;;4.03;;
80111;SDS011;69421;51.062;3.728;2023-05-27T05:32:06;15.82;;;4.75;;
80111;SDS011;69421;51.062;3.728;2023-05-27T05:34:34;8.88;;;3.78;;
80111;SDS011;69421;51.062;3.728;2023-05-27T05:36:59;10.93;;;4.00;;
80111;SDS011;69421;51.062;3.728;2023-05-27T05:39:25;17.13;;;3.92;;
80111;SDS011;69421;51.062;3.728;2023-05-27T05:41:50;9.68;;;3.80;;
80111;SDS011;69421;51.062;3.728;2023-05-27T05:44:17;7.88;;;3.85;;
80111;SDS011;69421;51.062;3.728;2023-05-27T05:46:43;12.05;;;4.03;;
80111;SDS011;69421;51.062;3.728;2023-05-27T05:49:08;13.43;;;4.15;;
80111;SDS011;69421;51.062;3.728;2023-05-27T05:51:34;11.98;;;4.22;;
80111;SDS011;69421;51.062;3.728;2023-05-27T05:54:00;15.80;;;4.05;;
80111;SDS011;69421;51.062;3.728;2023-05-27T05:56:26;15.77;;;4.55;;
80111;SDS011;69421;51.062;3.728;2023-05-27T05:58:52;12.20;;;4.25;;
80111;SDS011;69421;51.062;3.728;2023-05-27T06:01:17;11.85;;;3.83;;
80111;SDS011;69421;51.062;3.728;2023-05-27T06:03:43;12.93;;;4.18;;
80111;SDS011;69421;51.062;3.728;2023-05-27T06:06:09;9.70;;;4.25;;
80111;SDS011;69421;51.062;3.728;2023-05-27T06:08:35;11.10;;;4.25;;
80111;SDS011;69421;51.062;3.728;2023-05-27T06:11:00;14.20;;;4.53;;
80111;SDS011;69421;51.062;3.728;2023-05-27T06:13:26;11.63;;;4.13;;
80111;SDS011;69421;51.062;3.728;2023-05-27T06:15:52;13.25;;;4.85;;
80111;SDS011;69421;51.062;3.728;2023-05-27T06:18:18;8.82;;;4.18;;
80111;SDS011;69421;51.062;3.728;2023-05-27T06:20:43;7.90;;;3.60;;
80111;SDS011;69421;51.062;3.728;2023-05-27T06:23:09;10.52;;;4.65;;
80111;SDS011;69421;51.062;3.728;2023-05-27T06:25:34;9.93;;;4.63;;
80111;SDS011;69421;51.062;3.728;2023-05-27T06:28:00;7.10;;;3.83;;
80111;SDS011;69421;51.062;3.728;2023-05-27T06:30:26;9.70;;;4.18;;
80111;SDS011;69421;51.062;3.728;2023-05-27T06:32:52;13.27;;;3.80;;
80111;SDS011;69421;51.062;3.728;2023-05-27T06:35:18;15.30;;;4.00;;
80111;SDS011;69421;51.062;3.728;2023-05-27T06:37:43;14.00;;;4.40;;
80111;SDS011;69421;51.062;3.728;2023-05-27T06:40:09;11.90;;;4.57;;
80111;SDS011;69421;51.062;3.728;2023-05-27T06:42:36;15.48;;;4.93;;
80111;SDS011;69421;51.062;3.728;2023-05-27T06:45:02;10.35;;;4.95;;
80111;SDS011;69421;51.062;3.728;2023-05-27T06:47:28;15.00;;;3.92;;
80111;SDS011;69421;51.062;3.728;2023-05-27T06:49:54;8.40;;;3.35;;
80111;SDS011;69421;51.062;3.728;2023-05-27T06:52:20;11.60;;;3.72;;
80111;SDS011;69421;51.062;3.728;2023-05-27T06:54:46;11.68;;;3.65;;
80111;SDS011;69421;51.062;3.728;2023-05-27T06:57:12;7.82;;;3.55;;
80111;SDS011;69421;51.062;3.728;2023-05-27T06:59:38;8.00;;;3.13;;
80111;SDS011;69421;51.062;3.728;2023-05-27T07:02:05;10.80;;;5.28;;
80111;SDS011;69421;51.062;3.728;2023-05-27T07:04:31;13.73;;;4.55;;
80111;SDS011;69421;51.062;3.728;2023-05-27T07:06:56;12.73;;;3.70;;
80111;SDS011;69421;51.062;3.728;2023-05-27T07:09:22;11.43;;;4.30;;
80111;SDS011;69421;51.062;3.728;2023-05-27T07:11:47;10.73;;;4.13;;
80111;SDS011;69421;51.062;3.728;2023-05-27T07:14:13;13.95;;;4.72;;
80111;SDS011;69421;51.062;3.728;2023-05-27T07:16:39;8.68;;;3.80;;
80111;SDS011;69421;51.062;3.728;2023-05-27T07:19:05;12.60;;;4.18;;
80111;SDS011;69421;51.062;3.728;2023-05-27T07:21:31;13.32;;;4.25;;
80111;SDS011;69421;51.062;3.728;2023-05-27T07:23:57;9.38;;;4.15;;
80111;SDS011;69421;51.062;3.728;2023-05-27T07:26:24;13.65;;;4.78;;
80111;SDS011;69421;51.062;3.728;2023-05-27T07:28:51;10.48;;;4.70;;
80111;SDS011;69421;51.062;3.728;2023-05-27T07:31:17;12.45;;;4.65;;
80111;SDS011;69421;51.062;3.728;2023-05-27T07:33:42;13.02;;;4.47;;
80111;SDS011;69421;51.062;3.728;2023-05-27T07:36:08;13.47;;;4.23;;
80111;SDS011;69421;51.062;3.728;2023-05-27T07:38:33;8.90;;;4.32;;
80111;SDS011;69421;51.062;3.728;2023-05-27T07:40:59;8.95;;;3.20;;
80111;SDS011;69421;51.062;3.728;2023-05-27T07:43:25;11.88;;;4.90;;
80111;SDS011;69421;51.062;3.728;2023-05-27T07:45:50;11.88;;;3.80;;
80111;SDS011;69421;51.062;3.728;2023-05-27T07:48:16;13.60;;;4.28;;
80111;SDS011;69421;51.062;3.728;2023-05-27T07:50:42;15.35;;;4.60;;
80111;SDS011;69421;51.062;3.728;2023-05-27T07:53:08;11.20;;;4.00;;
80111;SDS011;69421;51.062;3.728;2023-05-27T07:55:33;9.65;;;4.30;;
80111;SDS011;69421;51.062;3.728;2023-05-27T07:57:59;11.35;;;5.05;;
80111;SDS011;69421;51.062;3.728;2023-05-27T08:00:25;13.95;;;4.35;;
80111;SDS011;69421;51.062;3.728;2023-05-27T08:02:50;10.32;;;4.05;;
80111;SDS011;69421;51.062;3.728;2023-05-27T08:05:16;14.60;;;5.05;;
80111;SDS011;69421;51.062;3.728;2023-05-27T08:07:41;13.38;;;4.70;;
80111;SDS011;69421;51.062;3.728;2023-05-27T08:10:07;13.00;;;4.28;;
80111;SDS011;69421;51.062;3.728;2023-05-27T08:12:33;11.32;;;3.90;;
80111;SDS011;69421;51.062;3.728;2023-05-27T08:14:59;9.48;;;4.45;;
80111;SDS011;69421;51.062;3.728;2023-05-27T08:17:25;11.63;;;4.03;;
80111;SDS011;69421;51.062;3.728;2023-05-27T08:19:50;13.32;;;4.15;;
80111;SDS011;69421;51.062;3.728;2023-05-27T08:22:16;10.23;;;4.00;;
80111;SDS011;69421;51.062;3.728;2023-05-27T08:24:41;15.13;;;4.40;;
80111;SDS011;69421;51.062;3.728;2023-05-27T08:27:13;13.68;;;4.85;;
80111;SDS011;69421;51.062;3.728;2023-05-27T08:29:40;15.90;;;4.78;;
80111;SDS011;69421;51.062;3.728;2023-05-27T08:32:06;18.00;;;5.65;;
80111;SDS011;69421;51.062;3.728;2023-05-27T08:34:31;15.45;;;5.32;;
80111;SDS011;69421;51.062;3.728;2023-05-27T08:36:57;11.00;;;4.65;;
80111;SDS011;69421;51.062;3.728;2023-05-27T08:39:22;9.35;;;3.88;;
80111;SDS011;69421;51.062;3.728;2023-05-27T08:41:48;14.10;;;4.05;;
80111;SDS011;69421;51.062;3.728;2023-05-27T08:44:14;13.15;;;4.78;;
80111;SDS011;69421;51.062;3.728;2023-05-27T08:46:40;10.63;;;4.25;;
80111;SDS011;69421;51.062;3.728;2023-05-27T08:49:06;12.63;;;5.13;;
80111;SDS011;69421;51.062;3.728;2023-05-27T08:51:32;10.50;;;4.55;;
80111;SDS011;69421;51.062;3.728;2023-05-27T08:53:58;10.98;;;5.03;;
80111;SDS011;69421;51.062;3.728;2023-05-27T08:56:24;10.73;;;5.18;;
80111;SDS011;69421;51.062;3.728;2023-05-27T08:58:51;9.05;;;5.60;;
80111;SDS011;69421;51.062;3.728;2023-05-27T09:01:19;11.95;;;4.93;;
80111;SDS011;69421;51.062;3.728;2023-05-27T09:03:46;12.00;;;5.65;;
80111;SDS011;69421;51.062;3.728;2023-05-27T09:06:13;11.52;;;4.88;;
80111;SDS011;69421;51.062;3.728;2023-05-27T09:08:38;11.20;;;4.72;;
80111;SDS011;69421;51.062;3.728;2023-05-27T09:11:04;11.05;;;4.97;;
80111;SDS011;69421;51.062;3.728;2023-05-27T09:13:33;13.65;;;5.28;;
80111;SDS011;69421;51.062;3.728;2023-05-27T09:15:59;11.65;;;4.45;;
80111;SDS011;69421;51.062;3.728;2023-05-27T09:18:29;12.60;;;5.18;;
80111;SDS011;69421;51.062;3.728;2023-05-27T09:20:58;13.50;;;5.47;;
80111;SDS011;69421;51.062;3.728;2023-05-27T09:23:24;10.52;;;4.43;;
80111;SDS011;69421;51.062;3.728;2023-05-27T09:25:50;11.93;;;4.85;;
80111;SDS011;69421;51.062;3.728;2023-05-27T09:28:20;13.05;;;4.80;;
80111;SDS011;69421;51.062;3.728;2023-05-27T09:31:07;11.82;;;4.90;;
80111;SDS011;69421;51.062;3.728;2023-05-27T09:33:35;12.30;;;5.55;;
80111;SDS011;69421;51.062;3.728;2023-05-27T09:36:05;14.20;;;5.30;;
80111;SDS011;69421;51.062;3.728;2023-05-27T09:38:32;12.65;;;5.50;;
80111;SDS011;69421;51.062;3.728;2023-05-27T09:40:59;11.80;;;5.32;;
80111;SDS011;69421;51.062;3.728;2023-05-27T09:43:26;13.27;;;6.30;;
80111;SDS011;69421;51.062;3.728;2023-05-27T09:45:58;12.13;;;5.93;;
80111;SDS011;69421;51.062;3.728;2023-05-27T09:48:25;11.15;;;5.03;;
80111;SDS011;69421;51.062;3.728;2023-05-27T09:50:51;12.88;;;6.32;;
80111;SDS011;69421;51.062;3.728;2023-05-27T09:53:18;13.55;;;5.85;;
80111;SDS011;69421;51.062;3.728;2023-05-27T09:55:48;15.75;;;6.10;;
80111;SDS011;69421;51.062;3.728;2023-05-27T09:58:14;13.30;;;6.15;;
80111;SDS011;69421;51.062;3.728;2023-05-27T10:00:40;12.00;;;5.88;;
80111;SDS011;69421;51.062;3.728;2023-05-27T10:03:06;11.70;;;6.00;;
80111;SDS011;69421;51.062;3.728;2023-05-27T10:05:32;14.40;;;7.38;;
80111;SDS011;69421;51.062;3.728;2023-05-27T10:07:58;11.48;;;5.57;;
80111;SDS011;69421;51.062;3.728;2023-05-27T10:10:24;11.50;;;5.45;;
80111;SDS011;69421;51.062;3.728;2023-05-27T10:12:50;15.40;;;5.78;;
80111;SDS011;69421;51.062;3.728;2023-05-27T10:15:29;14.93;;;6.38;;
80111;SDS011;69421;51.062;3.728;2023-05-27T10:18:02;15.15;;;6.38;;
80111;SDS011;69421;51.062;3.728;2023-05-27T10:20:38;13.70;;;5.82;;
80111;SDS011;69421;51.062;3.728;2023-05-27T10:23:14;13.00;;;5.75;;
80111;SDS011;69421;51.062;3.728;2023-05-27T10:25:51;10.95;;;5.28;;
80111;SDS011;69421;51.062;3.728;2023-05-27T10:30:52;10.73;;;5.50;;
80111;SDS011;69421;51.062;3.728;2023-05-27T10:33:28;13.18;;;5.75;;
80111;SDS011;69421;51.062;3.728;2023-05-27T10:35:55;11.35;;;4.90;;
80111;SDS011;69421;51.062;3.728;2023-05-27T10:38:21;12.45;;;6.32;;
80111;SDS011;69421;51.062;3.728;2023-05-27T10:40:49;12.40;;;6.35;;
80111;SDS011;69421;51.062;3.728;2023-05-27T10:43:27;12.23;;;6.32;;
80111;SDS011;69421;51.062;3.728;2023-05-27T10:46:03;11.95;;;5.68;;
80111;SDS011;69421;51.062;3.728;2023-05-27T10:48:29;12.75;;;6.40;;
80111;SDS011;69421;51.062;3.728;2023-05-27T10:50:58;14.68;;;6.40;;
80111;SDS011;69421;51.062;3.728;2023-05-27T10:53:27;18.02;;;6.45;;
80111;SDS011;69421;51.062;3.728;2023-05-27T10:55:53;10.52;;;5.60;;
80111;SDS011;69421;51.062;3.728;2023-05-27T10:58:20;11.95;;;5.35;;
80111;SDS011;69421;51.062;3.728;2023-05-27T11:00:52;12.10;;;5.60;;
80111;SDS011;69421;51.062;3.728;2023-05-27T11:03:19;16.33;;;7.63;;
80111;SDS011;69421;51.062;3.728;2023-05-27T11:06:02;14.90;;;6.75;;
80111;SDS011;69421;51.062;3.728;2023-05-27T11:08:28;15.43;;;7.00;;
80111;SDS011;69421;51.062;3.728;2023-05-27T11:11:01;15.30;;;6.55;;
80111;SDS011;69421;51.062;3.728;2023-05-27T11:13:35;13.52;;;6.03;;
80111;SDS011;69421;51.062;3.728;2023-05-27T11:16:05;10.93;;;6.32;;
80111;SDS011;69421;51.062;3.728;2023-05-27T11:21:03;12.70;;;5.57;;
80111;SDS011;69421;51.062;3.728;2023-05-27T11:23:39;14.43;;;5.65;;
80111;SDS011;69421;51.062;3.728;2023-05-27T11:26:12;11.73;;;5.00;;
80111;SDS011;69421;51.062;3.728;2023-05-27T11:28:46;11.30;;;4.47;;
80111;SDS011;69421;51.062;3.728;2023-05-27T11:31:26;13.90;;;5.40;;
80111;SDS011;69421;51.062;3.728;2023-05-27T11:33:53;9.05;;;4.90;;
80111;SDS011;69421;51.062;3.728;2023-05-27T11:36:19;12.88;;;5.68;;
80111;SDS011;69421;51.062;3.728;2023-05-27T11:38:47;11.38;;;5.60;;
80111;SDS011;69421;51.062;3.728;2023-05-27T11:41:14;15.35;;;5.75;;
80111;SDS011;69421;51.062;3.728;2023-05-27T11:46:17;13.93;;;5.72;;
80111;SDS011;69421;51.062;3.728;2023-05-27T11:48:43;10.73;;;4.80;;
80111;SDS011;69421;51.062;3.728;2023-05-27T11:51:10;12.45;;;5.50;;
80111;SDS011;69421;51.062;3.728;2023-05-27T11:53:40;14.23;;;4.95;;
80111;SDS011;69421;51.062;3.728;2023-05-27T11:56:09;14.00;;;5.13;;
80111;SDS011;69421;51.062;3.728;2023-05-27T11:58:35;12.13;;;4.57;;
80111;SDS011;69421;51.062;3.728;2023-05-27T12:01:02;12.55;;;4.70;;
80111;SDS011;69421;51.062;3.728;2023-05-27T12:03:29;11.10;;;4.63;;
80111;SDS011;69421;51.062;3.728;2023-05-27T12:05:55;10.43;;;5.93;;
80111;SDS011;69421;51.062;3.728;2023-05-27T12:08:20;12.10;;;5.35;;
80111;SDS011;69421;51.062;3.728;2023-05-27T12:10:46;13.10;;;5.03;;
80111;SDS011;69421;51.062;3.728;2023-05-27T12:13:15;12.07;;;4.68;;
80111;SDS011;69421;51.062;3.728;2023-05-27T12:15:41;9.30;;;4.47;;
80111;SDS011;69421;51.062;3.728;2023-05-27T12:18:08;11.95;;;4.95;;
80111;SDS011;69421;51.062;3.728;2023-05-27T12:20:34;12.07;;;4.28;;
80111;SDS011;69421;51.062;3.728;2023-05-27T12:22:59;10.32;;;4.70;;
80111;SDS011;69421;51.062;3.728;2023-05-27T12:25:25;12.13;;;4.93;;
80111;SDS011;69421;51.062;3.728;2023-05-27T12:27:51;8.30;;;4.85;;
80111;SDS011;69421;51.062;3.728;2023-05-27T12:30:16;10.35;;;4.43;;
80111;SDS011;69421;51.062;3.728;2023-05-27T12:32:42;11.20;;;5.07;;
80111;SDS011;69421;51.062;3.728;2023-05-27T12:35:07;11.40;;;4.82;;
80111;SDS011;69421;51.062;3.728;2023-05-27T12:37:33;12.35;;;5.32;;
80111;SDS011;69421;51.062;3.728;2023-05-27T12:39:59;11.43;;;4.78;;
80111;SDS011;69421;51.062;3.728;2023-05-27T12:42:24;10.70;;;4.47;;
80111;SDS011;69421;51.062;3.728;2023-05-27T12:44:50;9.48;;;4.03;;
80111;SDS011;69421;51.062;3.728;2023-05-27T12:47:16;12.25;;;5.47;;
80111;SDS011;69421;51.062;3.728;2023-05-27T12:49:41;15.60;;;5.20;;
80111;SDS011;69421;51.062;3.728;2023-05-27T12:52:07;14.07;;;5.15;;
80111;SDS011;69421;51.062;3.728;2023-05-27T12:54:33;9.57;;;4.53;;
80111;SDS011;69421;51.062;3.728;2023-05-27T12:56:59;11.38;;;4.50;;
80111;SDS011;69421;51.062;3.728;2023-05-27T12:59:30;10.82;;;4.18;;
80111;SDS011;69421;51.062;3.728;2023-05-27T13:01:56;11.80;;;4.03;;
80111;SDS011;69421;51.062;3.728;2023-05-27T13:04:21;10.73;;;3.55;;
80111;SDS011;69421;51.062;3.728;2023-05-27T13:06:47;9.15;;;4.03;;
80111;SDS011;69421;51.062;3.728;2023-05-27T13:09:13;12.18;;;4.28;;
80111;SDS011;69421;51.062;3.728;2023-05-27T13:11:39;11.52;;;4.53;;
80111;SDS011;69421;51.062;3.728;2023-05-27T13:14:05;11.25;;;4.38;;
80111;SDS011;69421;51.062;3.728;2023-05-27T13:16:31;10.43;;;5.10;;
80111;SDS011;69421;51.062;3.728;2023-05-27T13:18:57;10.70;;;4.68;;
80111;SDS011;69421;51.062;3.728;2023-05-27T13:21:22;9.73;;;4.47;;
80111;SDS011;69421;51.062;3.728;2023-05-27T13:23:48;12.63;;;4.28;;
80111;SDS011;69421;51.062;3.728;2023-05-27T13:26:14;11.65;;;4.57;;
80111;SDS011;69421;51.062;3.728;2023-05-27T13:28:40;10.88;;;4.68;;
80111;SDS011;69421;51.062;3.728;2023-05-27T13:31:06;9.80;;;3.58;;
80111;SDS011;69421;51.062;3.728;2023-05-27T13:33:32;10.25;;;4.22;;
80111;SDS011;69421;51.062;3.728;2023-05-27T13:35:58;8.25;;;3.72;;
80111;SDS011;69421;51.062;3.728;2023-05-27T13:38:23;9.15;;;4.40;;
80111;SDS011;69421;51.062;3.728;2023-05-27T13:40:49;9.52;;;4.45;;
80111;SDS011;69421;51.062;3.728;2023-05-27T13:43:16;9.32;;;4.75;;
80111;SDS011;69421;51.062;3.728;2023-05-27T13:45:41;13.68;;;6.90;;
80111;SDS011;69421;51.062;3.728;2023-05-27T13:48:07;13.20;;;6.53;;
80111;SDS011;69421;51.062;3.728;2023-05-27T13:50:34;9.98;;;4.35;;
80111;SDS011;69421;51.062;3.728;2023-05-27T13:53:00;8.98;;;3.22;;
80111;SDS011;69421;51.062;3.728;2023-05-27T13:55:25;8.60;;;3.75;;
80111;SDS011;69421;51.062;3.728;2023-05-27T13:57:51;8.85;;;3.63;;
80111;SDS011;69421;51.062;3.728;2023-05-27T14:00:17;8.13;;;3.95;;
80111;SDS011;69421;51.062;3.728;2023-05-27T14:02:43;11.85;;;4.55;;
80111;SDS011;69421;51.062;3.728;2023-05-27T14:05:09;11.10;;;4.13;;
80111;SDS011;69421;51.062;3.728;2023-05-27T14:07:42;8.23;;;3.72;;
80111;SDS011;69421;51.062;3.728;2023-05-27T14:10:09;11.85;;;3.58;;
80111;SDS011;69421;51.062;3.728;2023-05-27T14:12:36;9.98;;;3.90;;
80111;SDS011;69421;51.062;3.728;2023-05-27T14:15:02;9.95;;;3.85;;
80111;SDS011;69421;51.062;3.728;2023-05-27T14:17:28;10.90;;;4.60;;
80111;SDS011;69421;51.062;3.728;2023-05-27T14:19:54;9.60;;;3.97;;
80111;SDS011;69421;51.062;3.728;2023-05-27T14:22:20;11.70;;;3.53;;
80111;SDS011;69421;51.062;3.728;2023-05-27T14:24:45;8.55;;;3.53;;
80111;SDS011;69421;51.062;3.728;2023-05-27T14:27:11;10.63;;;4.18;;
80111;SDS011;69421;51.062;3.728;2023-05-27T14:29:37;10.55;;;3.90;;
80111;SDS011;69421;51.062;3.728;2023-05-27T14:32:02;8.68;;;3.17;;
80111;SDS011;69421;51.062;3.728;2023-05-27T14:34:28;10.50;;;3.55;;
80111;SDS011;69421;51.062;3.728;2023-05-27T14:36:54;10.05;;;3.80;;
80111;SDS011;69421;51.062;3.728;2023-05-27T14:39:20;7.93;;;3.33;;
80111;SDS011;69421;51.062;3.728;2023-05-27T14:41:46;9.30;;;3.80;;
80111;SDS011;69421;51.062;3.728;2023-05-27T14:44:11;9.25;;;3.80;;
80111;SDS011;69421;51.062;3.728;2023-05-27T14:46:37;12.70;;;4.57;;
80111;SDS011;69421;51.062;3.728;2023-05-27T14:49:03;14.23;;;4.80;;
80111;SDS011;69421;51.062;3.728;2023-05-27T14:51:29;9.43;;;4.22;;
80111;SDS011;69421;51.062;3.728;2023-05-27T14:53:54;9.55;;;3.72;;
80111;SDS011;69421;51.062;3.728;2023-05-27T14:56:20;7.13;;;3.50;;